Time;durP1;ratioP1;P1;durP2;ratioP2;P2;SDS_P1;SDS_P2;PMS_P1;PMS_P2;Temp;Humidity;BMP_temperature;BMP_pressure;BME280_temperature;BME280_humidity;BME280_pressure;Samples;Min_cycle;Max_cycle;Signal;HPM_P1;HPM_P2
2022/08/29 00:00:47;;;;;;;13.98;12.15;;;;;;;16.54;84.61;98489.03;7390752;19;20019;-72
2022/08/29 00:03:16;;;;;;;17.17;12.45;;;;;;;16.46;84.60;98481.97;7388791;19;20497;-72
2022/08/29 00:05:44;;;;;;;18.08;13.57;;;;;;;16.27;84.92;98483.38;7391098;19;20019;-72
2022/08/29 00:08:16;;;;;;;15.80;13.35;;;;;;;16.18;85.10;98482.69;7386428;19;20088;-71
2022/08/29 00:10:43;;;;;;;18.05;13.50;;;;;;;16.11;85.26;98481.78;7386873;19;20375;-70
2022/08/29 00:13:11;;;;;;;15.65;14.05;;;;;;;16.05;85.61;98484.41;7390399;19;20017;-72
2022/08/29 00:15:38;;;;;;;16.23;14.38;;;;;;;16.01;85.51;98481.28;7390486;19;20015;-72
2022/08/29 00:18:12;;;;;;;19.88;15.05;;;;;;;15.93;85.83;98484.88;7390440;19;20033;-73
2022/08/29 00:20:40;;;;;;;19.35;14.02;;;;;;;15.95;85.88;98490.84;7392130;19;20545;-72
2022/08/29 00:23:07;;;;;;;17.83;15.05;;;;;;;15.87;86.12;98493.63;7393580;19;20082;-72
2022/08/29 00:25:34;;;;;;;16.98;13.65;;;;;;;15.84;86.05;98485.19;7383749;19;20018;-71
2022/08/29 00:28:01;;;;;;;16.38;12.95;;;;;;;15.88;86.04;98489.13;7389074;19;20018;-71
2022/08/29 00:30:28;;;;;;;14.50;12.30;;;;;;;15.89;85.89;98493.44;7391233;19;20472;-71
2022/08/29 00:32:54;;;;;;;18.33;13.18;;;;;;;15.82;86.32;98492.53;7391021;19;20018;-71
2022/08/29 00:35:25;;;;;;;17.20;14.07;;;;;;;15.76;86.47;98492.25;7391624;19;20026;-72
2022/08/29 00:37:58;;;;;;;15.63;13.10;;;;;;;15.76;86.35;98494.94;7388214;19;20021;-71
2022/08/29 00:40:29;;;;;;;19.25;14.90;;;;;;;15.70;86.62;98493.00;7389599;19;20014;-71
2022/08/29 00:42:56;;;;;;;16.63;14.53;;;;;;;15.76;86.47;98486.09;7383596;19;20010;-71
2022/08/29 00:45:23;;;;;;;17.70;14.30;;;;;;;15.86;86.06;98486.63;7388457;19;20010;-72
2022/08/29 00:47:56;;;;;;;16.80;13.02;;;;;;;15.88;86.01;98489.97;7384569;19;20038;-72
2022/08/29 00:50:41;;;;;;;18.63;14.73;;;;;;;15.89;86.00;98488.09;7389929;19;20013;-70
2022/08/29 00:53:11;;;;;;;15.82;12.80;;;;;;;15.88;86.21;98494.47;7390081;19;20018;-70
2022/08/29 00:55:39;;;;;;;16.35;12.90;;;;;;;15.84;86.42;98494.00;7382444;19;20014;-71
2022/08/29 00:58:23;;;;;;;14.52;12.52;;;;;;;15.83;86.47;98500.34;7386290;19;20018;-72
2022/08/29 01:00:52;;;;;;;18.45;12.63;;;;;;;15.77;86.61;98504.59;7384765;19;20462;-72
2022/08/29 01:03:19;;;;;;;15.82;13.18;;;;;;;15.74;86.46;98504.13;7390217;19;20037;-71
2022/08/29 01:05:46;;;;;;;16.30;12.95;;;;;;;15.74;86.65;98504.13;7385055;19;20382;-71
2022/08/29 01:08:13;;;;;;;14.82;13.25;;;;;;;15.72;86.49;98503.50;7391395;19;20018;-71
2022/08/29 01:13:32;;;;;;;16.23;13.40;;;;;;;15.75;86.52;98503.94;7388901;19;20476;-72
2022/08/29 01:16:00;;;;;;;17.05;15.20;;;;;;;15.73;87.11;98508.63;7382446;19;20017;-72
2022/08/29 01:18:30;;;;;;;18.85;14.45;;;;;;;15.77;86.62;98506.41;7384229;19;20020;-71
2022/08/29 01:21:02;;;;;;;18.92;13.07;;;;;;;15.77;86.45;98509.94;7384436;19;20018;-72
2022/08/29 01:24:10;;;;;;;26.20;13.40;;;;;;;15.79;86.50;98504.41;7389360;19;20018;-71
2022/08/29 01:26:37;;;;;;;16.00;13.35;;;;;;;15.80;86.42;98512.22;7386773;19;20022;-72
2022/08/29 01:29:04;;;;;;;20.20;12.57;;;;;;;15.76;86.67;98512.78;7388489;19;20017;-72
2022/08/29 01:31:39;;;;;;;15.73;13.68;;;;;;;15.69;86.41;98506.53;7386621;19;20494;-72
2022/08/29 01:34:24;;;;;;;15.82;13.18;;;;;;;15.63;86.59;98513.41;7384668;19;20014;-72
2022/08/29 01:37:00;;;;;;;17.98;13.95;;;;;;;15.57;86.55;98514.97;7387345;19;20017;-72
2022/08/29 01:39:30;;;;;;;17.58;13.98;;;;;;;15.53;86.58;98512.84;7390180;19;20015;-72
2022/08/29 01:42:02;;;;;;;19.50;15.30;;;;;;;15.42;86.88;98511.47;7381952;19;20021;-71
2022/08/29 01:44:29;;;;;;;20.10;14.23;;;;;;;15.35;87.17;98514.06;7389066;19;20024;-71
2022/08/29 01:46:58;;;;;;;15.90;14.20;;;;;;;15.33;86.99;98516.06;7384606;19;20027;-70
2022/08/29 01:49:30;;;;;;;;;;;;;;;15.37;86.90;98513.84;7387829;19;20030;-71
2022/08/29 01:51:56;;;;;;;21.70;14.43;;;;;;;15.30;87.10;98511.09;7386663;19;20265;-71
2022/08/29 01:54:23;;;;;;;18.83;15.10;;;;;;;15.28;87.40;98506.97;7385379;19;20019;-71
2022/08/29 01:56:51;;;;;;;20.25;15.73;;;;;;;15.29;87.29;98511.28;7384798;19;20021;-70
2022/08/29 01:59:21;;;;;;;18.83;14.65;;;;;;;15.30;87.21;98513.75;7386082;19;20025;-71
2022/08/29 02:02:15;;;;;;;23.33;14.95;;;;;;;15.37;87.31;98519.19;7386587;19;20350;-72
2022/08/29 02:04:44;;;;;;;19.50;14.18;;;;;;;15.34;87.18;98504.38;7386259;19;20011;-72
2022/08/29 02:07:11;;;;;;;20.17;13.63;;;;;;;15.37;87.05;98519.19;7380504;19;20019;-71
2022/08/29 02:09:39;;;;;;;18.60;14.00;;;;;;;15.28;87.02;98510.44;7388354;19;20473;-72
2022/08/29 02:12:11;;;;;;;19.77;13.70;;;;;;;15.30;87.09;98513.75;7388035;19;20379;-72
2022/08/29 02:14:39;;;;;;;17.13;14.50;;;;;;;15.32;86.92;98513.56;7388712;19;20014;-71
2022/08/29 02:17:07;;;;;;;18.05;14.63;;;;;;;15.24;87.30;98514.47;7384936;19;20006;-72
2022/08/29 02:19:34;;;;;;;15.82;14.20;;;;;;;15.20;87.21;98520.38;7390424;19;20015;-71
2022/08/29 02:22:02;;;;;;;17.17;14.30;;;;;;;15.27;86.88;98513.28;7384168;19;20010;-71
2022/08/29 02:24:29;;;;;;;22.13;13.93;;;;;;;15.24;86.99;98525.13;7382950;19;20442;-72
2022/08/29 02:26:57;;;;;;;20.33;14.38;;;;;;;15.21;87.17;98522.00;7385638;19;20011;-72
2022/08/29 02:29:24;;;;;;;16.02;14.07;;;;;;;15.11;87.25;98516.94;7386212;19;20011;-71
2022/08/29 02:31:56;;;;;;;;;;;;;;;15.05;87.41;98515.00;7387744;19;20086;-71
2022/08/29 02:34:22;;;;;;;14.05;12.52;;;;;;;15.07;87.15;98521.81;7388699;19;19914;-72
2022/08/29 02:36:49;;;;;;;15.68;12.85;;;;;;;15.14;87.02;98521.94;7385392;19;20097;-72
2022/08/29 02:39:17;;;;;;;20.75;14.13;;;;;;;15.07;87.22;98519.16;7383432;19;20014;-71
2022/08/29 02:41:43;;;;;;;18.25;14.25;;;;;;;15.06;87.13;98506.84;7383686;19;20018;-72
2022/08/29 02:44:10;;;;;;;15.05;12.25;;;;;;;15.09;87.20;98509.13;7388630;19;20014;-72
2022/08/29 02:46:37;;;;;;;17.73;12.38;;;;;;;15.06;87.05;98509.50;7387565;19;20033;-72
2022/08/29 02:49:04;;;;;;;17.90;12.60;;;;;;;15.10;86.91;98508.13;7386506;19;20759;-72
2022/08/29 02:51:32;;;;;;;15.48;12.60;;;;;;;15.12;87.04;98513.28;7384546;19;20362;-71
2022/08/29 02:53:59;;;;;;;15.88;13.27;;;;;;;15.06;87.32;98508.66;7385188;19;20517;-72
2022/08/29 02:56:27;;;;;;;20.15;13.20;;;;;;;15.06;87.43;98512.19;7381897;19;20025;-72
2022/08/29 02:58:54;;;;;;;15.75;13.18;;;;;;;15.05;87.27;98509.69;7383642;19;20010;-71
2022/08/29 03:01:22;;;;;;;14.30;12.80;;;;;;;15.04;87.02;98508.84;7385990;19;20021;-71
2022/08/29 03:03:49;;;;;;;15.85;12.20;;;;;;;15.11;86.96;98503.63;7386648;19;20031;-72
2022/08/29 03:06:18;;;;;;;14.02;12.52;;;;;;;15.09;86.85;98503.81;7384207;19;20540;-71
2022/08/29 03:08:45;;;;;;;13.30;11.93;;;;;;;15.10;86.67;98512.63;7386635;19;20348;-72
2022/08/29 03:11:12;;;;;;;14.48;11.25;;;;;;;15.06;86.55;98506.84;7385649;19;20023;-72
2022/08/29 03:13:39;;;;;;;15.73;12.75;;;;;;;15.09;86.76;98503.81;7383762;19;20050;-71
2022/08/29 03:16:07;;;;;;;14.90;12.55;;;;;;;14.93;86.89;98502.13;7386082;19;20039;-71
2022/08/29 03:18:34;;;;;;;18.30;12.73;;;;;;;14.87;87.36;98507.34;7392818;19;20028;-71
2022/08/29 03:21:01;;;;;;;21.92;14.23;;;;;;;14.85;87.17;98509.34;7392661;19;20043;-71
2022/08/29 03:23:28;;;;;;;17.98;13.57;;;;;;;14.78;87.36;98505.75;7392269;19;20011;-72
2022/08/29 03:25:54;;;;;;;16.38;12.90;;;;;;;14.79;87.22;98502.91;7389926;19;20034;-71
2022/08/29 03:28:21;;;;;;;18.25;12.45;;;;;;;14.86;87.10;98495.84;7392403;19;21236;-71
2022/08/29 03:30:48;;;;;;;16.75;12.63;;;;;;;14.92;86.88;98502.28;7390814;19;20080;-72
2022/08/29 03:33:16;;;;;;;17.55;13.63;;;;;;;14.82;87.17;98494.53;7393180;19;20029;-72
2022/08/29 03:35:42;;;;;;;16.67;13.57;;;;;;;14.76;87.46;98500.59;7392013;19;20018;-71
2022/08/29 03:38:09;;;;;;;16.48;13.05;;;;;;;14.80;87.24;98501.91;7395143;19;20767;-71
2022/08/29 03:40:39;;;;;;;20.08;14.18;;;;;;;14.73;87.27;98505.47;7391243;19;20019;-71
2022/08/29 03:43:08;;;;;;;17.42;14.02;;;;;;;14.65;87.42;98509.03;7390277;19;20015;-71
2022/08/29 03:45:35;;;;;;;16.98;13.75;;;;;;;14.59;87.54;98504.41;7389084;19;20630;-71
2022/08/29 03:48:02;;;;;;;19.23;14.75;;;;;;;14.57;87.62;98519.75;7387463;19;20014;-72
2022/08/29 03:50:28;;;;;;;21.13;14.82;;;;;;;14.50;87.57;98522.25;7394428;19;20014;-71
2022/08/29 03:52:55;;;;;;;21.95;16.15;;;;;;;14.42;87.53;98517.78;7391834;19;20015;-71
2022/08/29 03:55:22;;;;;;;19.17;15.32;;;;;;;14.35;87.97;98516.00;7391893;19;20039;-71
2022/08/29 03:57:49;;;;;;;17.20;15.25;;;;;;;14.35;87.74;98521.34;7386536;19;20015;-71
2022/08/29 04:00:18;;;;;;;21.67;15.48;;;;;;;14.34;87.74;98517.84;7391397;19;20011;-72
2022/08/29 04:02:45;;;;;;;19.10;15.10;;;;;;;14.42;87.60;98520.47;7385954;19;20017;-71
2022/08/29 04:05:14;;;;;;;18.92;14.95;;;;;;;14.39;87.68;98525.31;7386171;19;20014;-71
2022/08/29 04:07:47;;;;;;;23.17;15.45;;;;;;;14.38;87.74;98524.50;7384885;19;20018;-72
2022/08/29 04:10:28;;;;;;;17.48;14.85;;;;;;;14.42;87.51;98517.78;7392753;19;20077;-72
2022/08/29 04:12:55;;;;;;;19.33;14.90;;;;;;;14.42;87.64;98524.97;7389093;19;21443;-71
2022/08/29 04:15:23;;;;;;;19.58;15.45;;;;;;;14.38;87.63;98526.34;7390572;19;20017;-72
2022/08/29 04:17:53;;;;;;;16.77;14.32;;;;;;;14.48;87.23;98521.56;7383595;19;20020;-72
2022/08/29 04:20:22;;;;;;;15.82;12.82;;;;;;;14.49;87.01;98518.75;7387176;19;20010;-72
2022/08/29 04:22:52;;;;;;;15.63;12.93;;;;;;;14.52;87.11;98524.72;7388397;19;20015;-71
2022/08/29 04:25:20;;;;;;;16.95;13.38;;;;;;;14.53;86.97;98527.22;7392515;19;20021;-72
2022/08/29 04:27:48;;;;;;;15.52;13.82;;;;;;;14.48;87.32;98526.91;7383910;19;20022;-71
2022/08/29 04:30:19;;;;;;;16.23;13.77;;;;;;;14.48;87.48;98525.09;7388372;19;20042;-71
2022/08/29 04:32:46;;;;;;;18.33;13.93;;;;;;;14.40;87.67;98530.47;7393946;19;20094;-71
2022/08/29 04:35:14;;;;;;;19.27;15.25;;;;;;;14.39;87.78;98536.78;7390704;19;20023;-72
2022/08/29 04:37:41;;;;;;;19.77;15.18;;;;;;;14.40;87.96;98538.47;7385617;19;20354;-71
2022/08/29 04:40:11;;;;;;;20.10;14.13;;;;;;;14.37;87.89;98532.63;7390385;19;20015;-71
2022/08/29 04:42:38;;;;;;;21.45;14.82;;;;;;;14.48;87.65;98541.06;7387578;19;20344;-72
2022/08/29 04:45:13;;;;;;;16.73;12.65;;;;;;;14.53;87.54;98543.22;7390107;19;20021;-72
2022/08/29 04:47:41;;;;;;;17.20;12.68;;;;;;;14.50;87.60;98535.53;7387365;19;20081;-71
2022/08/29 04:50:13;;;;;;;;;;;;;;;14.46;87.87;98543.06;7393469;19;20046;-72
2022/08/29 04:52:41;;;;;;;18.38;14.88;;;;;;;14.44;88.10;98546.91;7387976;19;19929;-71
2022/08/29 04:55:09;;;;;;;19.48;15.48;;;;;;;14.39;88.11;98550.09;7386991;19;20074;-71
2022/08/29 04:57:37;;;;;;;22.80;15.90;;;;;;;14.38;88.15;98545.78;7382812;19;20015;-71
2022/08/29 05:00:10;;;;;;;21.25;15.90;;;;;;;14.46;88.33;98539.59;7385470;19;20018;-71
2022/08/29 05:02:38;;;;;;;17.65;14.55;;;;;;;14.57;88.08;98541.88;7384775;19;20007;-75
2022/08/29 05:05:06;;;;;;;18.90;16.08;;;;;;;14.62;87.82;98541.34;7391864;19;20015;-74
2022/08/29 05:07:34;;;;;;;17.15;15.35;;;;;;;14.62;88.02;98552.00;7385565;19;20421;-73
2022/08/29 05:10:10;;;;;;;23.10;15.77;;;;;;;14.72;88.20;98552.59;7384930;19;20010;-73
2022/08/29 05:12:37;;;;;;;21.08;15.48;;;;;;;14.84;87.80;98550.31;7387078;19;20015;-74
2022/08/29 05:15:05;;;;;;;19.23;14.05;;;;;;;14.90;87.89;98555.78;7390596;19;20011;-73
2022/08/29 05:17:32;;;;;;;15.43;13.55;;;;;;;14.95;87.75;98557.06;7381898;19;20336;-73
2022/08/29 05:19:59;;;;;;;19.25;13.93;;;;;;;14.93;87.49;98550.09;7388087;19;20699;-73
2022/08/29 05:22:26;;;;;;;16.58;13.73;;;;;;;14.87;87.70;98545.44;7389531;19;20010;-74
2022/08/29 05:24:55;;;;;;;19.67;15.55;;;;;;;14.81;87.85;98556.81;7389878;19;20090;-74
2022/08/29 05:27:22;;;;;;;23.50;16.10;;;;;;;14.78;87.88;98553.69;7380347;19;20014;-73
2022/08/29 05:29:50;;;;;;;18.27;16.33;;;;;;;14.75;88.05;98559.38;7386298;19;20010;-73
2022/08/29 05:32:18;;;;;;;18.90;14.98;;;;;;;14.92;87.69;98560.91;7389947;19;20405;-73
2022/08/29 05:34:46;;;;;;;18.80;16.02;;;;;;;14.97;87.28;98566.53;7392038;19;20014;-73
2022/08/29 05:37:18;;;;;;;18.83;15.48;;;;;;;14.88;87.33;98559.63;7389641;19;20018;-73
2022/08/29 05:39:46;;;;;;;19.40;15.95;;;;;;;15.01;87.32;98559.84;7390947;19;20014;-73
2022/08/29 05:42:15;;;;;;;19.65;16.08;;;;;;;14.93;87.44;98560.75;7385039;19;20040;-73
2022/08/29 05:44:42;;;;;;;20.45;16.40;;;;;;;14.92;87.49;98569.72;7388140;19;20017;-73
2022/08/29 05:47:12;;;;;;;20.35;16.13;;;;;;;15.15;87.24;98559.03;7385098;19;20102;-73
2022/08/29 05:49:41;;;;;;;18.02;15.18;;;;;;;15.32;86.95;98565.06;7385346;19;20010;-73
2022/08/29 05:52:15;;;;;;;17.35;14.95;;;;;;;15.35;86.76;98562.03;7385659;19;20020;-72
2022/08/29 05:54:43;;;;;;;18.00;15.35;;;;;;;15.51;86.25;98568.22;7389805;19;20024;-73
2022/08/29 05:57:11;;;;;;;18.50;15.15;;;;;;;15.58;86.34;98563.78;7380707;19;20358;-73
2022/08/29 05:59:44;;;;;;;19.88;16.00;;;;;;;15.51;86.15;98576.22;7382611;19;20030;-72
2022/08/29 06:02:11;;;;;;;19.58;16.42;;;;;;;15.37;86.15;98570.66;7382512;19;20031;-73
2022/08/29 06:04:38;;;;;;;20.42;17.75;;;;;;;15.32;86.12;98583.72;7386845;19;20014;-71
2022/08/29 06:07:06;;;;;;;21.20;17.17;;;;;;;15.31;86.36;98584.72;7385646;19;20018;-72
2022/08/29 06:09:34;;;;;;;19.15;17.10;;;;;;;15.49;86.60;98588.88;7388631;19;20097;-73
2022/08/29 06:12:02;;;;;;;28.05;16.80;;;;;;;15.74;86.53;98586.81;7388770;19;20010;-73
2022/08/29 06:14:29;;;;;;;19.60;17.33;;;;;;;15.89;86.15;98584.16;7386225;19;20020;-73
2022/08/29 06:16:56;;;;;;;23.20;17.08;;;;;;;15.98;85.45;98585.69;7382668;19;20029;-73
2022/08/29 06:19:22;;;;;;;19.20;16.15;;;;;;;16.08;85.26;98593.44;7383365;19;20010;-73
2022/08/29 06:21:49;;;;;;;20.73;16.85;;;;;;;16.10;84.68;98591.41;7386963;19;20015;-73
2022/08/29 06:24:16;;;;;;;18.90;16.90;;;;;;;16.04;84.36;98598.31;7383049;19;20494;-73
2022/08/29 06:26:44;;;;;;;19.98;17.38;;;;;;;16.11;84.21;98598.41;7383562;19;20035;-73
2022/08/29 06:29:11;;;;;;;23.52;19.00;;;;;;;16.13;84.17;98593.72;7387188;19;20013;-73
2022/08/29 06:31:38;;;;;;;28.05;18.90;;;;;;;16.20;84.12;98595.44;7387117;19;20487;-73
2022/08/29 06:34:06;;;;;;;21.42;18.58;;;;;;;16.32;84.10;98597.63;7382835;19;20010;-73
2022/08/29 06:36:33;;;;;;;20.65;17.27;;;;;;;16.49;83.91;98598.25;7383525;19;20349;-73
2022/08/29 06:39:05;;;;;;;23.58;16.98;;;;;;;16.67;83.63;98599.50;7387447;19;20010;-73
2022/08/29 06:41:32;;;;;;;19.27;16.02;;;;;;;16.77;83.08;98603.69;7386144;19;20018;-73
2022/08/29 06:44:01;;;;;;;18.55;16.40;;;;;;;16.91;82.54;98607.38;7388019;19;20025;-73
2022/08/29 06:46:34;;;;;;;26.67;15.35;;;;;;;16.89;82.08;98603.03;7384713;19;20022;-73
2022/08/29 06:49:03;;;;;;;20.67;15.63;;;;;;;16.89;82.00;98605.69;7387990;19;20009;-73
2022/08/29 06:51:31;;;;;;;17.52;14.52;;;;;;;17.01;81.51;98611.38;7379431;19;20082;-73
2022/08/29 06:53:59;;;;;;;16.48;14.77;;;;;;;17.05;81.43;98612.63;7387195;19;20387;-73
2022/08/29 06:56:28;;;;;;;18.42;15.38;;;;;;;17.11;81.21;98619.91;7386133;19;20144;-73
2022/08/29 06:58:55;;;;;;;19.02;14.32;;;;;;;17.22;80.88;98607.00;7388390;19;20025;-73
2022/08/29 07:01:22;;;;;;;19.35;15.02;;;;;;;17.24;80.78;98602.31;7389213;19;20014;-73
2022/08/29 07:03:52;;;;;;;18.25;14.90;;;;;;;17.39;80.32;98613.75;7389682;19;20017;-73
2022/08/29 07:06:19;;;;;;;23.95;15.77;;;;;;;17.39;80.22;98611.06;7382610;19;20163;-71
2022/08/29 07:08:46;;;;;;;18.73;15.45;;;;;;;17.42;79.97;98618.72;7381932;19;20014;-74
2022/08/29 07:11:25;;;;;;;20.33;14.43;;;;;;;17.49;80.40;98614.25;7387855;19;20006;-73
2022/08/29 07:13:52;;;;;;;18.77;14.18;;;;;;;17.60;79.94;98612.06;7386500;19;20014;-73
2022/08/29 07:16:19;;;;;;;20.10;14.30;;;;;;;17.65;79.59;98606.94;7383595;19;20090;-73
2022/08/29 07:18:48;;;;;;;20.73;15.45;;;;;;;17.72;79.89;98608.66;7388085;19;20080;-73
2022/08/29 07:21:17;;;;;;;16.80;15.05;;;;;;;17.82;79.41;98613.66;7384330;19;20014;-72
2022/08/29 07:23:47;;;;;;;18.83;14.43;;;;;;;17.86;79.30;98622.16;7380623;19;20481;-73
2022/08/29 07:26:19;;;;;;;19.33;13.98;;;;;;;17.91;79.28;98623.22;7379805;19;20464;-73
2022/08/29 07:28:47;;;;;;;19.42;13.88;;;;;;;18.01;79.36;98630.03;7386326;19;20023;-73
2022/08/29 07:31:14;;;;;;;21.58;14.82;;;;;;;18.08;78.77;98615.66;7385280;19;20017;-74
2022/08/29 07:33:41;;;;;;;20.27;14.32;;;;;;;18.15;78.82;98610.38;7386701;19;20025;-73
2022/08/29 07:36:08;;;;;;;19.30;13.95;;;;;;;18.32;77.54;98617.00;7385762;19;20089;-73
2022/08/29 07:38:35;;;;;;;15.43;13.43;;;;;;;18.46;77.34;98617.91;7386102;19;20411;-74
2022/08/29 07:41:04;;;;;;;18.75;13.50;;;;;;;18.48;75.96;98613.16;7383673;19;20037;-73
2022/08/29 07:43:31;;;;;;;22.25;13.13;;;;;;;18.54;75.60;98620.41;7383645;19;20045;-72
2022/08/29 07:45:58;;;;;;;22.00;13.27;;;;;;;18.58;75.84;98615.47;7385835;19;20009;-73
2022/08/29 07:48:25;;;;;;;15.25;12.95;;;;;;;18.65;75.53;98627.88;7384250;19;20014;-73
2022/08/29 07:50:52;;;;;;;17.38;12.60;;;;;;;18.74;75.01;98623.16;7384929;19;20082;-73
2022/08/29 07:53:18;;;;;;;19.30;12.68;;;;;;;18.87;74.46;98625.06;7385806;19;20038;-73
2022/08/29 07:55:49;;;;;;;15.55;12.23;;;;;;;18.92;75.14;98627.97;7385079;19;20018;-70
2022/08/29 07:58:16;;;;;;;18.58;14.30;;;;;;;18.93;74.43;98624.28;7378402;19;20019;-70
2022/08/29 08:00:42;;;;;;;19.33;13.10;;;;;;;19.03;74.10;98624.69;7385556;19;20018;-72
2022/08/29 08:03:09;;;;;;;16.13;13.20;;;;;;;19.09;73.47;98628.44;7386151;19;20029;-72
2022/08/29 08:05:37;;;;;;;22.33;13.15;;;;;;;19.33;73.08;98623.50;7392636;19;20027;-71
2022/08/29 08:08:04;;;;;;;24.70;13.48;;;;;;;19.46;73.06;98616.25;7388088;19;20015;-72
2022/08/29 08:10:41;;;;;;;20.00;13.13;;;;;;;19.69;71.97;98625.75;7392500;19;20105;-72
2022/08/29 08:13:08;;;;;;;20.50;14.32;;;;;;;19.60;73.01;98621.63;7390780;19;20017;-72
2022/08/29 08:15:37;;;;;;;18.15;14.00;;;;;;;19.32;73.64;98627.19;7388362;19;20014;-72
2022/08/29 08:18:04;;;;;;;16.73;11.95;;;;;;;19.69;72.08;98626.56;7387504;19;20035;-71
2022/08/29 08:20:31;;;;;;;16.65;12.98;;;;;;;20.05;70.55;98629.84;7392961;19;20029;-72
2022/08/29 08:22:58;;;;;;;24.20;13.55;;;;;;;19.93;71.36;98635.00;7392118;19;20010;-72
2022/08/29 08:25:25;;;;;;;21.40;13.57;;;;;;;19.84;72.14;98636.28;7389547;19;20014;-72
2022/08/29 08:27:52;;;;;;;17.15;12.15;;;;;;;20.08;71.13;98629.41;7387800;19;20015;-72
2022/08/29 08:30:19;;;;;;;14.43;11.32;;;;;;;20.41;69.96;98625.81;7387738;19;20007;-72
2022/08/29 08:32:52;;;;;;;16.20;12.02;;;;;;;20.68;69.99;98632.72;7390122;19;20026;-71
2022/08/29 08:35:20;;;;;;;19.25;13.55;;;;;;;20.73;67.43;98637.47;7393464;19;20018;-70
2022/08/29 08:37:48;;;;;;;18.05;12.15;;;;;;;20.87;66.37;98636.34;7389738;19;20514;-72
2022/08/29 08:40:19;;;;;;;16.92;11.95;;;;;;;21.15;65.82;98627.09;7391417;19;20077;-73
2022/08/29 08:42:48;;;;;;;14.48;11.23;;;;;;;21.30;65.44;98635.66;7389354;19;20018;-72
2022/08/29 08:45:21;;;;;;;14.55;11.57;;;;;;;21.44;66.67;98636.41;7389813;19;20029;-72
2022/08/29 08:47:51;;;;;;;16.00;11.38;;;;;;;21.17;66.19;98631.22;7382784;19;20392;-72
2022/08/29 08:50:36;;;;;;;15.73;11.40;;;;;;;21.30;66.43;98632.97;7389076;19;20011;-72
2022/08/29 08:53:06;;;;;;;13.27;11.68;;;;;;;21.50;66.08;98632.03;7391348;19;20010;-72
2022/08/29 08:55:42;;;;;;;15.18;11.48;;;;;;;21.44;64.66;98631.84;7389832;19;20038;-71
2022/08/29 08:58:14;;;;;;;17.20;10.73;;;;;;;21.85;64.44;98633.16;7390353;19;20014;-72
2022/08/29 09:00:44;;;;;;;;;;;;;;;21.71;63.24;98626.22;7389645;19;20014;-72
2022/08/29 09:03:34;;;;;;;13.38;10.25;;;;;;;21.97;63.34;98632.41;7381784;19;20002;-72
2022/08/29 09:06:15;;;;;;;12.95;9.05;;;;;;;22.45;60.81;98623.59;7385216;19;20014;-72
2022/08/29 09:08:50;;;;;;;11.18;9.20;;;;;;;22.51;61.03;98623.53;7391678;19;20010;-72
2022/08/29 09:11:34;;;;;;;16.50;10.30;;;;;;;22.40;60.57;98626.16;7388577;19;20021;-72
2022/08/29 09:14:19;;;;;;;13.10;10.15;;;;;;;22.40;61.05;98634.25;7387059;19;20022;-72
2022/08/29 09:16:48;;;;;;;13.35;8.93;;;;;;;22.53;60.67;98629.50;7387284;19;20011;-72
2022/08/29 09:19:15;;;;;;;12.68;9.70;;;;;;;22.83;59.04;98623.31;7387724;19;20070;-72
2022/08/29 09:21:50;;;;;;;12.85;8.40;;;;;;;22.65;59.18;98620.66;7387635;19;20022;-72
2022/08/29 09:24:25;;;;;;;13.18;9.02;;;;;;;22.83;58.56;98623.31;7385852;19;20018;-72
2022/08/29 09:26:51;;;;;;;11.95;8.50;;;;;;;22.90;60.20;98624.03;7386108;19;20611;-71
2022/08/29 09:29:19;;;;;;;14.48;9.18;;;;;;;22.71;60.00;98625.13;7390916;19;20018;-72
2022/08/29 09:32:04;;;;;;;13.38;9.38;;;;;;;22.82;59.10;98620.84;7390825;19;20363;-72
2022/08/29 09:34:35;;;;;;;21.42;9.82;;;;;;;22.60;59.78;98621.34;7390044;19;20015;-72
2022/08/29 09:37:31;;;;;;;11.57;8.25;;;;;;;23.12;59.46;98618.97;7380438;19;20021;-72
2022/08/29 09:40:09;;;;;;;13.13;9.68;;;;;;;22.86;59.83;98617.47;7389464;19;20006;-73
2022/08/29 09:42:39;;;;;;;14.02;9.25;;;;;;;22.82;59.38;98610.88;7388810;19;20057;-72
2022/08/29 09:45:14;;;;;;;12.63;8.70;;;;;;;22.92;62.20;98616.53;7389893;19;20039;-72
2022/08/29 09:47:41;;;;;;;12.50;8.48;;;;;;;23.09;58.99;98619.44;7387185;19;20029;-72
2022/08/29 09:50:23;;;;;;;11.43;9.00;;;;;;;23.13;59.19;98617.91;7390944;19;20017;-72
2022/08/29 09:52:57;;;;;;;9.60;7.10;;;;;;;23.08;56.80;98612.38;7389230;19;20326;-72
2022/08/29 09:55:29;;;;;;;9.40;6.88;;;;;;;23.34;58.44;98618.44;7385156;19;20038;-71
2022/08/29 09:58:09;;;;;;;10.93;7.30;;;;;;;23.49;56.95;98616.09;7386518;19;20010;-73
2022/08/29 10:00:39;;;;;;;8.55;5.80;;;;;;;23.53;54.42;98613.75;7387049;19;20014;-72
2022/08/29 10:03:10;;;;;;;7.95;6.57;;;;;;;23.37;59.03;98612.56;7388002;19;20027;-72
2022/08/29 10:05:45;;;;;;;10.30;6.95;;;;;;;22.87;58.35;98608.31;7387230;19;20018;-73
2022/08/29 10:08:28;;;;;;;11.77;6.85;;;;;;;23.03;59.34;98608.75;7387352;19;20021;-72
2022/08/29 10:10:58;;;;;;;10.20;5.90;;;;;;;23.38;57.44;98614.19;7378757;19;20673;-72
2022/08/29 10:13:49;;;;;;;13.13;6.57;;;;;;;23.72;55.28;98606.38;7386160;19;20010;-72
2022/08/29 10:16:21;;;;;;;11.80;7.82;;;;;;;23.48;55.24;98608.22;7386409;19;20020;-72
2022/08/29 10:18:57;;;;;;;10.25;6.50;;;;;;;23.80;53.73;98603.31;7383274;19;20018;-72
2022/08/29 10:21:48;;;;;;;8.95;6.10;;;;;;;23.82;54.85;98602.03;7387616;19;20033;-72
2022/08/29 10:24:30;;;;;;;8.43;6.05;;;;;;;24.12;54.41;98613.75;7384405;19;20015;-72
2022/08/29 10:27:23;;;;;;;10.93;5.90;;;;;;;24.16;53.47;98613.03;7382770;19;20019;-72
2022/08/29 10:30:09;;;;;;;9.93;5.60;;;;;;;24.22;52.93;98608.56;7384984;19;20533;-72
2022/08/29 10:32:57;;;;;;;7.80;5.55;;;;;;;23.98;54.96;98610.47;7385087;19;20038;-71
2022/08/29 10:35:32;;;;;;;8.27;5.55;;;;;;;24.02;54.85;98609.78;7387824;19;20381;-72
2022/08/29 10:38:21;;;;;;;8.93;5.20;;;;;;;24.31;52.30;98607.97;7384240;19;20026;-72
2022/08/29 10:40:54;;;;;;;8.68;5.45;;;;;;;24.23;53.71;98605.63;7383339;19;20090;-72
2022/08/29 10:43:28;;;;;;;11.63;6.28;;;;;;;24.42;50.73;98603.56;7382679;19;20015;-71
2022/08/29 10:46:05;;;;;;;12.38;6.25;;;;;;;24.33;53.37;98594.22;7379668;19;20692;-72
2022/08/29 10:48:51;;;;;;;10.18;5.13;;;;;;;24.53;53.84;98596.50;7386058;19;20015;-73
2022/08/29 10:51:40;;;;;;;15.15;5.93;;;;;;;24.21;51.36;98585.31;7384623;19;20022;-73
2022/08/29 10:54:20;;;;;;;16.35;5.40;;;;;;;24.54;52.13;98595.47;7386848;19;20021;-72
2022/08/29 10:56:48;;;;;;;12.73;5.15;;;;;;;24.38;50.53;98599.72;7385611;19;20480;-73
2022/08/29 10:59:20;;;;;;;8.40;4.93;;;;;;;24.69;49.88;98594.94;7385859;19;20034;-73
2022/08/29 11:01:59;;;;;;;10.48;5.28;;;;;;;24.73;49.70;98591.50;7380611;19;20033;-71
2022/08/29 11:04:49;;;;;;;9.48;5.38;;;;;;;24.75;48.45;98591.28;7383745;19;20362;-72
2022/08/29 11:07:29;;;;;;;9.73;5.18;;;;;;;24.83;49.30;98588.16;7385499;19;20018;-72
2022/08/29 11:10:13;;;;;;;9.45;4.75;;;;;;;25.04;50.83;98583.94;7383939;19;20043;-73
2022/08/29 11:12:49;;;;;;;9.40;4.88;;;;;;;25.11;50.75;98581.88;7383531;19;20010;-73
2022/08/29 11:15:31;;;;;;;9.95;5.45;;;;;;;25.11;48.37;98579.16;7386097;19;20504;-73
2022/08/29 11:18:20;;;;;;;8.23;5.03;;;;;;;25.04;50.51;98577.69;7379903;19;20034;-73
2022/08/29 11:20:52;;;;;;;12.25;5.45;;;;;;;24.70;53.71;98561.41;7384508;19;20014;-72
2022/08/29 11:23:21;;;;;;;6.40;4.80;;;;;;;24.59;50.86;98571.19;7386287;19;20524;-73
2022/08/29 11:25:48;;;;;;;6.25;4.50;;;;;;;24.62;52.44;98564.47;7385903;19;20077;-73
2022/08/29 11:28:47;;;;;;;12.90;5.07;;;;;;;24.52;48.92;98565.13;7383868;19;20399;-73
2022/08/29 11:31:44;;;;;;;5.88;4.15;;;;;;;24.69;53.77;98563.28;7382863;19;20022;-73
2022/08/29 11:34:39;;;;;;;8.30;4.35;;;;;;;24.23;49.81;98561.56;7380341;19;20073;-72
2022/08/29 11:37:21;;;;;;;9.90;4.53;;;;;;;24.29;51.18;98552.47;7377991;19;20460;-73
2022/08/29 11:39:51;;;;;;;;;;;;;;;24.30;48.52;98559.53;7385128;19;20018;-73
2022/08/29 11:42:21;;;;;;;6.38;4.68;;;;;;;24.18;50.34;98548.75;7388479;19;19932;-72